createdAt,value
2023-01-31T00:00:01.030Z,3.8
2023-01-31T00:10:00.991Z,3.7
2023-01-31T00:20:01.018Z,3.7
2023-01-31T00:30:01.038Z,3.7
2023-01-31T00:40:01.228Z,3.7
2023-01-31T00:50:01.549Z,3.8
2023-01-31T01:00:01.059Z,3.7
2023-01-31T01:10:01.017Z,3.8
2023-01-31T01:20:01.085Z,4.0
2023-01-31T01:30:01.257Z,4.0
2023-01-31T01:40:01.311Z,4.0
2023-01-31T01:50:01.059Z,4.0
2023-01-31T02:00:01.264Z,3.9
2023-01-31T02:10:01.033Z,3.9
2023-01-31T02:20:00.991Z,3.9
2023-01-31T02:30:01.494Z,4.0
2023-01-31T02:40:02.368Z,3.9
2023-01-31T02:50:01.063Z,3.8
2023-01-31T03:00:01.295Z,3.5
2023-01-31T03:10:01.489Z,3.2
2023-01-31T03:20:01.255Z,3.2
2023-01-31T03:30:01.301Z,3.1
2023-01-31T03:40:01.029Z,3.2
2023-01-31T03:50:01.027Z,3.0
2023-01-31T04:00:02.568Z,3.1
2023-01-31T04:10:01.074Z,3.0
2023-01-31T04:20:01.347Z,2.8
2023-01-31T04:30:01.057Z,3.0
2023-01-31T04:40:02.619Z,3.0
2023-01-31T04:50:01.031Z,3.0
2023-01-31T05:00:01.266Z,2.9
2023-01-31T05:10:01.223Z,3.0
2023-01-31T05:20:01.041Z,2.9
2023-01-31T05:30:01.276Z,3.0
2023-01-31T05:40:00.999Z,3.3
2023-01-31T05:50:01.263Z,3.7
2023-01-31T06:00:02.264Z,3.7
2023-01-31T06:10:01.082Z,3.7
2023-01-31T06:20:01.405Z,3.7
2023-01-31T06:30:01.325Z,3.7
2023-01-31T06:40:01.280Z,3.7
2023-01-31T06:50:01.274Z,3.8
2023-01-31T07:00:01.250Z,3.9
2023-01-31T07:10:01.081Z,3.8
2023-01-31T07:20:01.007Z,3.8
2023-01-31T07:30:01.018Z,3.8
2023-01-31T07:40:00.532Z,4.0
2023-01-31T07:50:01.136Z,3.9
2023-01-31T08:00:01.006Z,3.9
2023-01-31T08:10:01.091Z,4.2
2023-01-31T08:20:01.305Z,4.2
2023-01-31T08:30:01.037Z,4.0
2023-01-31T08:40:00.970Z,4.0
2023-01-31T08:50:01.313Z,4.2
2023-01-31T09:00:01.047Z,4.4
2023-01-31T09:10:01.067Z,4.6
2023-01-31T09:20:01.077Z,4.5
2023-01-31T09:30:02.348Z,4.6
2023-01-31T09:40:00.984Z,4.7
2023-01-31T09:50:01.056Z,4.7
2023-01-31T10:00:01.095Z,5.0
2023-01-31T10:10:01.035Z,5.0
2023-01-31T10:20:01.317Z,5.0
2023-01-31T10:30:00.506Z,5.3
2023-01-31T10:40:01.356Z,4.9
2023-01-31T10:50:01.261Z,5.1
2023-01-31T11:00:01.604Z,5.2
2023-01-31T11:10:01.128Z,5.4
2023-01-31T11:20:02.632Z,5.5
2023-01-31T11:30:02.441Z,5.1
2023-01-31T11:40:01.075Z,5.1
2023-01-31T11:50:01.200Z,5.1
2023-01-31T12:00:01.129Z,5.2
2023-01-31T12:10:00.983Z,5.2
2023-01-31T12:20:01.070Z,4.9
2023-01-31T12:30:01.803Z,4.6
2023-01-31T12:40:03.213Z,4.5
2023-01-31T12:50:01.266Z,4.3
2023-01-31T13:00:01.600Z,4.2
2023-01-31T13:10:01.324Z,4.0
2023-01-31T13:20:00.518Z,4.2
2023-01-31T13:30:01.238Z,4.4
2023-01-31T13:40:01.291Z,4.3
2023-01-31T13:50:01.083Z,4.2
2023-01-31T14:00:01.337Z,4.2
2023-01-31T14:10:01.510Z,4.3
2023-01-31T14:20:00.977Z,4.4
2023-01-31T14:30:01.087Z,4.3
2023-01-31T14:40:01.047Z,4.4
2023-01-31T14:50:01.116Z,4.5
2023-01-31T15:00:03.271Z,4.6
2023-01-31T15:10:01.397Z,4.7
2023-01-31T15:20:01.079Z,4.8
2023-01-31T15:30:01.130Z,4.9
2023-01-31T15:40:01.006Z,4.9
2023-01-31T15:50:01.512Z,5.0
2023-01-31T16:00:01.455Z,5.0
2023-01-31T16:10:03.408Z,5.1
2023-01-31T16:20:01.124Z,5.1
2023-01-31T16:30:00.542Z,5.3
2023-01-31T16:40:01.312Z,5.4
2023-01-31T16:50:01.308Z,5.4
2023-01-31T17:00:01.260Z,5.4
2023-01-31T17:10:00.979Z,5.3
2023-01-31T17:20:01.072Z,5.3
2023-01-31T17:30:01.026Z,5.3
2023-01-31T17:40:01.242Z,5.4
2023-01-31T17:50:01.317Z,5.4
2023-01-31T18:00:01.141Z,5.7
2023-01-31T18:10:01.175Z,5.6
2023-01-31T18:20:01.316Z,5.8
2023-01-31T18:30:01.405Z,6.0
2023-01-31T18:40:01.236Z,6.1
2023-01-31T18:50:01.665Z,6.1
2023-01-31T19:00:01.410Z,5.9
2023-01-31T19:10:01.239Z,6.1
2023-01-31T19:20:01.337Z,6.3
2023-01-31T19:30:01.295Z,6.5
2023-01-31T19:40:01.018Z,2.8
2023-01-31T19:50:01.533Z,3.1
2023-01-31T20:00:01.665Z,3.7
2023-01-31T20:10:01.508Z,3.8
2023-01-31T20:20:03.881Z,4.1
2023-01-31T20:30:01.249Z,4.1
2023-01-31T20:40:01.135Z,4.3
2023-01-31T20:50:02.220Z,4.5
2023-01-31T21:00:01.309Z,4.5
2023-01-31T21:10:01.107Z,4.7
2023-01-31T21:20:01.309Z,4.7
2023-01-31T21:30:01.001Z,4.9
2023-01-31T21:40:01.361Z,5.0
2023-01-31T21:50:02.526Z,4.3
2023-01-31T22:00:01.235Z,3.1
2023-01-31T22:10:02.034Z,2.8
2023-01-31T22:20:01.188Z,3.1
2023-01-31T22:30:14.171Z,3.5
2023-01-31T22:40:01.089Z,3.7
2023-01-31T22:50:01.109Z,3.8
2023-01-31T23:00:01.086Z,4.0
2023-01-31T23:10:01.251Z,4.0
2023-01-31T23:20:01.095Z,4.1
2023-01-31T23:30:01.151Z,4.3
2023-01-31T23:40:01.307Z,4.4
2023-01-31T23:50:01.247Z,4.6
